createdAt,value
2022-12-06T00:01:28.980Z,60.92
2022-12-06T00:03:58.959Z,60.33
2022-12-06T00:06:30.089Z,60.85
2022-12-06T00:08:59.291Z,60.62
2022-12-06T00:11:29.521Z,60.21
2022-12-06T00:14:00.231Z,60.21
2022-12-06T00:16:28.894Z,60.78
2022-12-06T00:18:57.627Z,60.48
2022-12-06T00:21:28.322Z,60.35
2022-12-06T00:23:58.356Z,60.76
2022-12-06T00:26:27.081Z,61.08
2022-12-06T00:28:58.901Z,61.25
2022-12-06T00:31:28.936Z,60.78
2022-12-06T00:33:57.088Z,61.10
2022-12-06T00:36:27.465Z,61.22
2022-12-06T00:38:54.744Z,61.57
2022-12-06T00:41:24.563Z,61.24
2022-12-06T00:43:52.912Z,61.36
2022-12-06T00:46:24.562Z,61.80
2022-12-06T00:48:53.514Z,61.96
2022-12-06T00:51:23.527Z,61.84
2022-12-06T00:53:51.573Z,61.95
2022-12-06T00:56:19.754Z,61.51
2022-12-06T00:58:47.412Z,62.24
2022-12-06T01:01:17.441Z,62.29
2022-12-06T01:03:46.889Z,61.52
2022-12-06T01:06:15.929Z,61.67
2022-12-06T01:08:43.725Z,61.76
2022-12-06T01:11:13.895Z,61.85
2022-12-06T01:13:41.388Z,62.07
2022-12-06T01:16:12.389Z,62.10
2022-12-06T01:18:41.229Z,62.39
2022-12-06T01:21:13.455Z,61.80
2022-12-06T01:23:40.450Z,62.15
2022-12-06T01:26:14.295Z,62.07
2022-12-06T01:28:41.228Z,61.79
2022-12-06T01:31:09.214Z,61.53
2022-12-06T01:33:36.206Z,61.84
2022-12-06T01:36:03.611Z,61.60
2022-12-06T01:38:32.229Z,61.90
2022-12-06T01:40:59.550Z,62.09
2022-12-06T01:43:36.070Z,61.29
2022-12-06T01:46:12.981Z,61.87
2022-12-06T01:48:41.789Z,61.90
2022-12-06T01:51:13.298Z,61.43
2022-12-06T01:53:45.386Z,61.45
2022-12-06T01:56:13.517Z,61.57
2022-12-06T01:58:45.025Z,61.09
2022-12-06T02:01:12.342Z,61.20
2022-12-06T02:03:40.068Z,61.78
2022-12-06T02:06:09.362Z,61.15
2022-12-06T02:08:38.198Z,61.72
2022-12-06T02:11:08.481Z,61.61
2022-12-06T02:13:37.202Z,61.46
2022-12-06T02:16:26.342Z,61.31
2022-12-06T02:19:00.777Z,61.50
2022-12-06T02:21:41.116Z,61.47
2022-12-06T02:25:04.580Z,61.77
2022-12-06T02:28:25.446Z,61.27
2022-12-06T02:31:00.006Z,61.22
2022-12-06T02:33:39.903Z,61.61
2022-12-06T02:36:17.158Z,61.39
2022-12-06T02:38:48.900Z,61.05
2022-12-06T02:41:24.160Z,61.34
2022-12-06T02:44:00.622Z,61.65
2022-12-06T02:46:34.822Z,61.54
2022-12-06T02:49:07.004Z,61.61
2022-12-06T02:51:37.406Z,60.97
2022-12-06T02:54:09.997Z,61.45
2022-12-06T02:56:37.056Z,61.18
2022-12-06T02:59:05.544Z,61.10
2022-12-06T03:01:40.932Z,60.96
2022-12-06T03:04:46.528Z,61.42
2022-12-06T03:07:37.620Z,61.26
2022-12-06T03:10:29.452Z,61.08
2022-12-06T03:13:21.205Z,60.96
2022-12-06T03:16:00.014Z,60.81
2022-12-06T03:18:37.216Z,60.89
2022-12-06T03:21:10.543Z,61.50
2022-12-06T03:23:41.826Z,61.29
2022-12-06T03:26:16.818Z,61.51
2022-12-06T03:28:48.379Z,61.52
2022-12-06T03:31:16.357Z,61.32
2022-12-06T03:33:52.995Z,60.80
2022-12-06T03:36:21.867Z,60.88
2022-12-06T03:38:55.134Z,61.31
2022-12-06T03:41:30.682Z,60.81
2022-12-06T03:43:59.803Z,61.30
2022-12-06T03:46:33.854Z,61.17
2022-12-06T03:49:09.841Z,60.69
2022-12-06T03:51:39.551Z,60.68
2022-12-06T03:54:08.401Z,60.90
2022-12-06T03:56:37.906Z,61.06
2022-12-06T03:59:05.261Z,60.56
2022-12-06T04:01:32.383Z,60.92
2022-12-06T04:03:59.693Z,60.44
2022-12-06T04:06:28.314Z,61.03
2022-12-06T04:09:15.496Z,60.48
2022-12-06T04:11:42.685Z,61.08
2022-12-06T04:14:09.671Z,60.13
2022-12-06T04:16:55.406Z,60.47
2022-12-06T04:19:22.398Z,60.91
2022-12-06T04:22:09.181Z,60.52
2022-12-06T04:24:36.113Z,60.45
2022-12-06T04:27:21.562Z,60.61
2022-12-06T04:30:07.079Z,60.17
2022-12-06T04:32:52.569Z,60.14
2022-12-06T04:35:38.064Z,60.14
2022-12-06T04:38:25.189Z,60.03
2022-12-06T04:40:52.133Z,59.95
2022-12-06T04:43:42.410Z,60.34
2022-12-06T04:46:09.862Z,60.09
2022-12-06T04:48:37.309Z,60.16
2022-12-06T04:51:04.902Z,59.53
2022-12-06T04:53:33.377Z,59.45
2022-12-06T04:56:01.608Z,59.59
2022-12-06T04:58:28.573Z,60.14
2022-12-06T05:00:55.875Z,59.52
2022-12-06T05:03:23.045Z,60.05
2022-12-06T05:05:50.395Z,60.08
2022-12-06T05:08:17.435Z,59.81
2022-12-06T05:10:49.591Z,59.43
2022-12-06T05:13:17.978Z,59.96
2022-12-06T05:15:51.221Z,59.28
2022-12-06T05:18:18.482Z,59.77
2022-12-06T05:20:46.058Z,59.32
2022-12-06T05:23:14.004Z,59.43
2022-12-06T05:25:41.518Z,59.48
2022-12-06T05:28:10.194Z,59.79
2022-12-06T05:30:37.251Z,59.81
2022-12-06T05:33:04.187Z,59.18
2022-12-06T05:35:31.189Z,59.17
2022-12-06T05:37:58.110Z,59.36
2022-12-06T05:40:25.048Z,59.09
2022-12-06T05:42:52.053Z,59.95
2022-12-06T05:45:20.405Z,60.01
2022-12-06T05:47:47.408Z,59.69
2022-12-06T05:50:14.382Z,59.45
2022-12-06T05:52:41.771Z,60.03
2022-12-06T05:55:09.235Z,59.83
2022-12-06T05:57:36.202Z,59.73
2022-12-06T06:00:06.102Z,59.63
2022-12-06T06:02:34.467Z,59.87
2022-12-06T06:05:01.503Z,60.21
2022-12-06T06:07:29.443Z,59.50
2022-12-06T06:09:56.391Z,59.79
2022-12-06T06:12:23.423Z,59.85
2022-12-06T06:14:50.489Z,60.39
2022-12-06T06:17:17.704Z,60.09
2022-12-06T06:19:51.162Z,60.56
2022-12-06T06:22:19.878Z,59.85
2022-12-06T06:24:47.135Z,59.90
2022-12-06T06:27:14.562Z,60.39
2022-12-06T06:29:45.319Z,60.50
2022-12-06T06:32:13.576Z,60.07
2022-12-06T06:34:40.630Z,60.79
2022-12-06T06:37:08.925Z,60.13
2022-12-06T06:39:35.898Z,60.09
2022-12-06T06:42:02.987Z,60.12
2022-12-06T06:44:29.900Z,60.51
2022-12-06T06:46:56.859Z,60.72
2022-12-06T06:49:24.595Z,60.48
2022-12-06T06:51:51.557Z,60.93
2022-12-06T06:54:20.080Z,60.02
2022-12-06T06:56:47.021Z,60.46
2022-12-06T06:59:13.974Z,60.64
2022-12-06T07:01:41.132Z,60.25
2022-12-06T07:04:08.168Z,60.17
2022-12-06T07:06:35.230Z,60.11
2022-12-06T07:09:02.275Z,60.38
2022-12-06T07:11:30.604Z,60.42
2022-12-06T07:13:57.602Z,60.52
2022-12-06T07:16:24.643Z,60.78
2022-12-06T07:18:51.763Z,60.75
2022-12-06T07:21:18.859Z,60.58
2022-12-06T07:23:45.865Z,60.50
2022-12-06T07:26:15.303Z,60.01
2022-12-06T07:28:46.823Z,60.52
2022-12-06T07:31:16.681Z,60.56
2022-12-06T07:33:44.754Z,59.84
2022-12-06T07:36:14.216Z,60.14
2022-12-06T07:38:43.107Z,60.12
2022-12-06T07:41:32.376Z,59.48
2022-12-06T07:44:21.335Z,59.97
2022-12-06T07:46:48.950Z,60.09
2022-12-06T07:49:17.399Z,60.00
2022-12-06T07:51:45.701Z,60.19
2022-12-06T07:54:13.701Z,59.53
2022-12-06T07:56:41.123Z,59.64
2022-12-06T07:59:09.963Z,59.30
2022-12-06T08:01:37.156Z,59.15
2022-12-06T08:04:06.431Z,59.06
2022-12-06T08:06:34.693Z,59.55
2022-12-06T08:09:01.965Z,59.23
2022-12-06T08:11:29.165Z,59.55
2022-12-06T08:13:56.949Z,59.60
2022-12-06T08:16:25.338Z,58.68
2022-12-06T08:18:52.652Z,58.73
2022-12-06T08:21:19.766Z,59.08
2022-12-06T08:23:46.993Z,58.87
2022-12-06T08:26:18.739Z,58.55
2022-12-06T08:28:46.180Z,58.59
2022-12-06T08:31:16.345Z,58.55
2022-12-06T08:33:47.791Z,58.98
2022-12-06T08:36:20.048Z,58.21
2022-12-06T08:38:48.038Z,58.29
2022-12-06T08:41:34.573Z,58.61
2022-12-06T08:44:03.606Z,58.66
2022-12-06T08:46:35.302Z,58.46
2022-12-06T08:49:04.097Z,58.17
2022-12-06T08:51:34.339Z,58.45
2022-12-06T08:54:02.140Z,58.83
2022-12-06T08:56:29.235Z,58.19
2022-12-06T08:58:56.764Z,57.94
2022-12-06T09:01:30.168Z,58.12
2022-12-06T09:04:00.570Z,57.49
2022-12-06T09:06:29.842Z,57.34
2022-12-06T09:08:58.350Z,57.50
2022-12-06T09:11:26.448Z,57.70
2022-12-06T09:13:53.492Z,57.30
2022-12-06T09:16:23.533Z,57.34
2022-12-06T09:18:51.661Z,56.83
2022-12-06T09:21:21.932Z,56.72
2022-12-06T09:23:51.264Z,57.17
2022-12-06T09:26:18.364Z,56.72
2022-12-06T09:28:51.453Z,56.85
2022-12-06T09:31:19.299Z,57.30
2022-12-06T09:33:46.745Z,57.18
2022-12-06T09:36:19.543Z,56.28
2022-12-06T09:38:55.247Z,56.20
2022-12-06T09:42:15.586Z,56.37
2022-12-06T09:45:24.713Z,55.97
2022-12-06T09:48:34.634Z,55.67
2022-12-06T09:51:17.966Z,55.85
2022-12-06T09:54:11.262Z,55.36
2022-12-06T09:56:47.386Z,55.91
2022-12-06T09:59:27.713Z,55.84
2022-12-06T10:02:23.476Z,55.00
2022-12-06T10:05:20.250Z,55.32
2022-12-06T10:08:04.413Z,54.93
2022-12-06T10:10:51.830Z,55.10
2022-12-06T10:13:34.244Z,55.43
2022-12-06T10:16:15.775Z,54.84
2022-12-06T10:19:08.274Z,54.68
2022-12-06T10:21:49.569Z,54.89
2022-12-06T10:24:42.336Z,55.12
2022-12-06T10:27:14.688Z,55.16
2022-12-06T10:29:55.220Z,55.17
2022-12-06T10:32:53.138Z,55.03
2022-12-06T10:35:39.789Z,54.96
2022-12-06T10:38:22.915Z,54.79
2022-12-06T10:41:03.137Z,54.72
2022-12-06T10:43:46.585Z,54.77
2022-12-06T10:46:42.451Z,54.50
2022-12-06T10:49:22.536Z,54.19
2022-12-06T10:52:00.581Z,54.19
2022-12-06T10:54:36.154Z,54.04
2022-12-06T10:57:15.370Z,54.38
2022-12-06T10:59:54.480Z,54.06
2022-12-06T11:02:31.585Z,53.59
2022-12-06T11:05:09.041Z,54.16
2022-12-06T11:07:43.189Z,54.21
2022-12-06T11:10:20.354Z,53.89
2022-12-06T11:12:54.738Z,54.34
2022-12-06T11:15:29.294Z,53.92
2022-12-06T11:18:07.608Z,54.71
2022-12-06T11:20:44.454Z,54.21
2022-12-06T11:23:21.545Z,54.52
2022-12-06T11:26:04.965Z,53.80
2022-12-06T11:28:38.272Z,53.91
2022-12-06T11:31:24.406Z,54.10
2022-12-06T11:33:53.755Z,54.18
2022-12-06T11:36:22.075Z,54.59
2022-12-06T11:38:49.107Z,54.05
2022-12-06T11:41:25.008Z,54.00
2022-12-06T11:43:54.115Z,53.97
2022-12-06T11:46:24.935Z,53.83
2022-12-06T11:48:53.725Z,54.34
2022-12-06T11:51:23.582Z,53.75
2022-12-06T11:54:06.459Z,54.13
2022-12-06T11:56:38.784Z,54.33
2022-12-06T11:59:28.368Z,54.80
2022-12-06T12:01:58.748Z,54.44
2022-12-06T12:04:34.056Z,54.40
2022-12-06T12:07:11.351Z,54.40
2022-12-06T12:09:50.900Z,54.13
2022-12-06T12:12:22.060Z,54.47
2022-12-06T12:14:56.630Z,54.00
2022-12-06T12:17:32.156Z,54.27
2022-12-06T12:20:06.084Z,54.35
2022-12-06T12:22:40.786Z,54.55
2022-12-06T12:25:26.431Z,54.50
2022-12-06T12:27:58.580Z,54.47
2022-12-06T12:30:33.141Z,54.95
2022-12-06T12:33:22.798Z,54.62
2022-12-06T12:35:54.985Z,54.82
2022-12-06T12:38:37.874Z,54.02
2022-12-06T12:41:23.492Z,53.96
2022-12-06T12:44:35.384Z,54.10
2022-12-06T12:46:55.032Z,54.34
2022-12-06T12:49:30.914Z,53.49
2022-12-06T12:52:00.086Z,53.84
2022-12-06T12:54:32.241Z,53.67
2022-12-06T12:57:05.132Z,53.34
2022-12-06T12:59:40.634Z,53.51
2022-12-06T13:02:21.494Z,53.18
2022-12-06T13:05:11.133Z,53.36
2022-12-06T13:07:43.564Z,53.50
2022-12-06T13:10:23.385Z,53.59
2022-12-06T13:12:55.986Z,53.35
2022-12-06T13:15:33.330Z,53.23
2022-12-06T13:18:11.654Z,53.50
2022-12-06T13:20:41.284Z,53.65
2022-12-06T13:23:14.083Z,53.61
2022-12-06T13:25:46.904Z,53.73
2022-12-06T13:28:21.354Z,53.79
2022-12-06T13:30:59.338Z,53.90
2022-12-06T13:33:31.995Z,54.61
2022-12-06T13:36:07.407Z,53.74
2022-12-06T13:38:37.476Z,53.94
2022-12-06T13:41:06.489Z,53.33
2022-12-06T13:43:54.859Z,53.05
2022-12-06T13:46:37.405Z,52.79
2022-12-06T13:49:24.796Z,53.00
2022-12-06T13:51:53.403Z,53.07
2022-12-06T13:54:32.851Z,52.39
2022-12-06T13:57:24.012Z,52.66
2022-12-06T13:59:51.442Z,53.41
2022-12-06T14:02:49.168Z,52.72
2022-12-06T14:06:14.037Z,53.59
2022-12-06T14:08:46.872Z,53.19
2022-12-06T14:11:21.386Z,53.92
2022-12-06T14:14:03.346Z,54.10
2022-12-06T14:16:38.178Z,53.92
2022-12-06T14:19:17.896Z,53.62
2022-12-06T14:21:53.866Z,53.46
2022-12-06T14:24:33.203Z,53.84
2022-12-06T14:27:12.664Z,53.42
2022-12-06T14:29:40.898Z,53.45
2022-12-06T14:32:08.522Z,53.76
2022-12-06T14:34:37.428Z,53.09
2022-12-06T14:37:19.650Z,53.76
2022-12-06T14:39:54.965Z,53.16
2022-12-06T14:42:41.215Z,53.27
2022-12-06T14:45:15.817Z,54.08
2022-12-06T14:47:45.131Z,54.06
2022-12-06T14:50:28.261Z,53.89
2022-12-06T14:53:03.610Z,53.04
2022-12-06T14:55:34.860Z,53.19
2022-12-06T14:58:14.103Z,53.79
2022-12-06T15:00:53.789Z,54.14
2022-12-06T15:03:30.593Z,54.33
2022-12-06T15:06:15.768Z,54.40
2022-12-06T15:08:44.541Z,54.22
2022-12-06T15:11:52.615Z,53.64
2022-12-06T15:14:25.524Z,54.72
2022-12-06T15:17:00.436Z,54.29
2022-12-06T15:19:30.486Z,54.36
2022-12-06T15:21:59.622Z,54.07
2022-12-06T15:24:29.115Z,54.27
2022-12-06T15:26:57.794Z,54.51
2022-12-06T15:29:24.982Z,54.28
2022-12-06T15:31:54.818Z,54.03
2022-12-06T15:34:28.408Z,54.23
2022-12-06T15:37:15.549Z,54.70
2022-12-06T15:39:44.124Z,54.35
2022-12-06T15:42:20.074Z,54.48
2022-12-06T15:44:49.943Z,54.01
2022-12-06T15:47:20.060Z,54.48
2022-12-06T15:49:48.806Z,54.52
2022-12-06T15:52:18.253Z,54.56
2022-12-06T15:54:45.553Z,54.38
2022-12-06T15:57:14.682Z,54.40
2022-12-06T15:59:41.720Z,55.07
2022-12-06T16:02:15.558Z,54.96
2022-12-06T16:04:43.624Z,55.94
2022-12-06T16:07:10.823Z,55.82
2022-12-06T16:09:38.162Z,55.11
2022-12-06T16:12:05.820Z,55.41
2022-12-06T16:14:34.152Z,55.86
2022-12-06T16:17:01.080Z,55.99
2022-12-06T16:19:47.974Z,56.17
2022-12-06T16:22:15.095Z,55.69
2022-12-06T16:24:42.071Z,55.11
2022-12-06T16:27:09.326Z,55.50
2022-12-06T16:29:37.838Z,55.55
2022-12-06T16:32:05.185Z,55.56
2022-12-06T16:34:32.161Z,55.24
2022-12-06T16:37:02.162Z,55.26
2022-12-06T16:39:31.892Z,55.82
2022-12-06T16:41:59.676Z,55.13
2022-12-06T16:44:27.002Z,54.97
2022-12-06T16:46:55.747Z,55.94
2022-12-06T16:52:12.517Z,55.86
2022-12-06T16:54:42.615Z,55.56
2022-12-06T16:57:11.255Z,56.21
2022-12-06T16:59:38.270Z,56.46
2022-12-06T17:02:26.532Z,56.04
2022-12-06T17:04:54.849Z,56.04
2022-12-06T17:07:22.113Z,56.15
2022-12-06T17:09:49.221Z,56.52
2022-12-06T17:12:16.628Z,56.87
2022-12-06T17:14:44.168Z,56.17
2022-12-06T17:17:15.198Z,55.99
2022-12-06T17:19:43.262Z,56.13
2022-12-06T17:22:11.824Z,56.34
2022-12-06T17:24:39.318Z,56.93
2022-12-06T17:27:08.710Z,55.85
2022-12-06T17:29:36.452Z,56.13
2022-12-06T17:32:03.645Z,55.86
2022-12-06T17:34:32.044Z,56.43
2022-12-06T17:36:59.890Z,55.90
2022-12-06T17:39:26.933Z,56.57
2022-12-06T17:42:12.634Z,56.51
2022-12-06T17:44:39.919Z,57.23
2022-12-06T17:47:07.126Z,56.80
2022-12-06T17:49:36.126Z,57.15
2022-12-06T17:52:03.889Z,56.56
2022-12-06T17:54:30.843Z,57.27
2022-12-06T17:56:57.958Z,56.68
2022-12-06T17:59:27.803Z,56.88
2022-12-06T18:02:14.615Z,56.90
2022-12-06T18:04:43.847Z,56.81
2022-12-06T18:07:11.811Z,56.45
2022-12-06T18:09:39.299Z,56.57
2022-12-06T18:12:08.995Z,57.06
2022-12-06T18:14:35.963Z,57.01
2022-12-06T18:17:03.417Z,57.38
2022-12-06T18:19:31.808Z,57.62
2022-12-06T18:22:01.528Z,57.12
2022-12-06T18:24:35.289Z,57.63
2022-12-06T18:27:04.011Z,57.69
2022-12-06T18:29:31.071Z,57.18
2022-12-06T18:31:58.242Z,56.99
2022-12-06T18:34:25.479Z,57.17
2022-12-06T18:36:52.449Z,57.28
2022-12-06T18:39:24.507Z,58.37
2022-12-06T18:41:52.674Z,58.04
2022-12-06T18:44:19.919Z,58.15
2022-12-06T18:46:47.001Z,58.02
2022-12-06T18:49:14.815Z,57.88
2022-12-06T18:51:42.291Z,57.97
2022-12-06T18:54:13.445Z,57.99
2022-12-06T18:56:42.647Z,57.90
2022-12-06T18:59:11.484Z,58.30
2022-12-06T19:01:40.557Z,58.06
2022-12-06T19:04:14.151Z,58.04
2022-12-06T19:06:43.037Z,57.90
2022-12-06T19:09:14.661Z,58.09
2022-12-06T19:11:46.069Z,58.57
2022-12-06T19:14:14.763Z,58.74
2022-12-06T19:16:44.814Z,58.48
2022-12-06T19:19:18.570Z,58.70
2022-12-06T19:21:47.214Z,58.30
2022-12-06T19:24:17.766Z,58.46
2022-12-06T19:26:46.381Z,58.74
2022-12-06T19:29:16.242Z,58.28
2022-12-06T19:31:45.044Z,58.13
2022-12-06T19:34:17.997Z,58.20
2022-12-06T19:36:45.733Z,58.16
2022-12-06T19:39:13.954Z,57.79
2022-12-06T19:42:00.742Z,58.12
2022-12-06T19:44:30.513Z,58.17
2022-12-06T19:46:58.315Z,58.05
2022-12-06T19:49:27.011Z,58.35
2022-12-06T19:51:54.222Z,58.38
2022-12-06T19:54:24.899Z,58.50
2022-12-06T19:56:54.772Z,58.05
2022-12-06T19:59:23.616Z,58.15
2022-12-06T20:01:54.070Z,58.16
2022-12-06T20:04:24.870Z,57.92
2022-12-06T20:06:53.336Z,58.44
2022-12-06T20:09:40.259Z,58.25
2022-12-06T20:12:07.824Z,57.85
2022-12-06T20:14:38.733Z,57.85
2022-12-06T20:17:11.971Z,57.97
2022-12-06T20:19:40.277Z,57.90
2022-12-06T20:22:07.249Z,58.01
2022-12-06T20:24:34.238Z,57.66
2022-12-06T20:27:01.795Z,58.07
2022-12-06T20:29:29.902Z,57.82
2022-12-06T20:31:59.353Z,57.81
2022-12-06T20:34:34.065Z,58.15
2022-12-06T20:37:03.806Z,58.36
2022-12-06T20:39:33.008Z,58.07
2022-12-06T20:42:02.817Z,58.16
2022-12-06T20:44:30.731Z,58.25
2022-12-06T20:46:57.900Z,58.65
2022-12-06T20:49:24.989Z,58.32
2022-12-06T20:51:53.912Z,58.54
2022-12-06T20:54:23.268Z,58.51
2022-12-06T20:56:53.394Z,58.43
2022-12-06T20:59:20.978Z,58.67
2022-12-06T21:01:48.725Z,58.85
2022-12-06T21:04:16.682Z,58.43
2022-12-06T21:06:43.864Z,58.28
2022-12-06T21:09:12.296Z,58.77
2022-12-06T21:11:39.873Z,59.21
2022-12-06T21:14:06.887Z,58.87
2022-12-06T21:16:35.527Z,59.46
2022-12-06T21:19:05.184Z,59.36
2022-12-06T21:21:35.143Z,59.44
2022-12-06T21:24:05.122Z,59.23
2022-12-06T21:26:35.030Z,59.64
2022-12-06T21:29:02.653Z,59.46
2022-12-06T21:31:32.711Z,59.73
2022-12-06T21:33:59.838Z,59.97
2022-12-06T21:36:27.355Z,59.36
2022-12-06T21:38:55.131Z,60.03
2022-12-06T21:41:22.496Z,59.70
2022-12-06T21:43:50.843Z,60.06
2022-12-06T21:46:21.452Z,60.12
2022-12-06T21:48:51.343Z,60.40
2022-12-06T21:51:19.704Z,60.08
2022-12-06T21:53:46.982Z,60.17
2022-12-06T21:56:19.174Z,60.67
2022-12-06T21:58:48.391Z,60.19
2022-12-06T22:01:20.239Z,60.47
2022-12-06T22:03:49.227Z,60.03
2022-12-06T22:06:16.656Z,60.61
2022-12-06T22:08:45.586Z,60.41
2022-12-06T22:11:16.092Z,60.25
2022-12-06T22:13:43.602Z,59.71
2022-12-06T22:16:12.287Z,60.21
2022-12-06T22:18:45.407Z,59.97
2022-12-06T22:21:16.690Z,59.94
2022-12-06T22:23:45.733Z,59.85
2022-12-06T22:26:16.342Z,60.00
2022-12-06T22:28:43.471Z,60.62
2022-12-06T22:31:13.119Z,60.81
2022-12-06T22:33:42.406Z,60.38
2022-12-06T22:36:10.434Z,60.32
2022-12-06T22:38:37.671Z,60.27
2022-12-06T22:41:06.052Z,61.01
2022-12-06T22:43:33.769Z,60.83
2022-12-06T22:46:05.219Z,60.28
2022-12-06T22:48:32.622Z,61.19
2022-12-06T22:51:13.624Z,61.01
2022-12-06T22:53:43.312Z,60.69
2022-12-06T22:56:11.252Z,60.52
2022-12-06T22:58:38.746Z,61.00
2022-12-06T23:01:15.995Z,60.59
2022-12-06T23:03:44.476Z,60.75
2022-12-06T23:06:13.823Z,60.73
2022-12-06T23:08:41.114Z,60.61
2022-12-06T23:11:11.676Z,60.51
2022-12-06T23:13:38.980Z,60.41
2022-12-06T23:16:10.562Z,60.95
2022-12-06T23:18:37.612Z,60.71
2022-12-06T23:21:08.953Z,60.63
2022-12-06T23:23:39.867Z,60.54
2022-12-06T23:26:09.274Z,61.16
2022-12-06T23:28:37.160Z,60.79
2022-12-06T23:31:06.650Z,60.66
2022-12-06T23:33:34.548Z,60.97
2022-12-06T23:36:07.869Z,60.47
2022-12-06T23:38:37.262Z,60.47
2022-12-06T23:41:07.183Z,60.91
2022-12-06T23:43:36.157Z,60.88
2022-12-06T23:46:07.792Z,60.52
2022-12-06T23:48:35.592Z,60.41
2022-12-06T23:51:05.715Z,60.49
2022-12-06T23:53:34.085Z,60.94
2022-12-06T23:56:08.403Z,61.13
2022-12-06T23:58:36.465Z,60.97
